Santa Fe, Texas
Current Conditions -  °F | °C
As of 12:18 PM on Thursday 18 Dec 2014 (Local Time) from KLVJ Reporting Station
Haze Haze  
Wind Chill: 68°   Ceiling: 600
Heat Index: 68°   Visibility: 4mi
Dew Point: 65°   Wind: 3mph
Humidity: 90%   Direction: 80°E
Pressure: 30.09"   Gusts: NA
Location:  29.37°N, 95.08°W
Report Text: KLVJ 181818Z AUTO 08003KT 4SM BR BKN006 OVC014 20/18 A3009 RMK AO2 CIG 006V009 T02000183
Loading
Personal Weather Stations






























Interactive Weather Map New forecast layout! Learn more

10-Day Weather Forecast

Advertisements
Track Severe Weather on mobile